Time;durP1;ratioP1;P1;durP2;ratioP2;P2;SDS_P1;SDS_P2;PMS_P1;PMS_P2;Temp;Humidity;BMP_temperature;BMP_pressure;BME280_temperature;BME280_humidity;BME280_pressure;Samples;Min_cycle;Max_cycle;Signal;HPM_P1;HPM_P2
2022/01/20 00:00:14;;;;;;;6.13;4.40;;;;;;;;;;5016940;28;20752;-53
2022/01/20 00:02:41;;;;;;;6.30;4.70;;;;;;;;;;5017203;28;20424;-53
2022/01/20 00:05:27;;;;;;;6.83;4.40;;;;;;;;;;5016713;28;20893;-52
2022/01/20 00:27:11;;;;;;;6.83;4.20;;;;;;;;;;5016498;28;20513;-51
2022/01/20 00:30:11;;;;;;;7.53;4.57;;;;;;;;;;5016408;28;20387;-54
2022/01/20 00:32:46;;;;;;;5.60;4.20;;;;;;;;;;5016154;28;20407;-50
2022/01/20 00:37:41;;;;;;;6.50;4.13;;;;;;;;;;5016583;28;20426;-53
2022/01/20 00:40:08;;;;;;;6.27;4.00;;;;;;;;;;5016351;28;20449;-52
2022/01/20 00:42:34;;;;;;;6.20;3.93;;;;;;;;;;5016386;28;20781;-51
2022/01/20 00:45:00;;;;;;;4.80;3.90;;;;;;;;;;5016243;28;20409;-52
2022/01/20 00:47:26;;;;;;;7.83;3.80;;;;;;;;;;5015888;28;20416;-55
2022/01/20 00:49:52;;;;;;;4.50;4.03;;;;;;;;;;5015933;28;20430;-55
2022/01/20 00:52:18;;;;;;;8.33;4.33;;;;;;;;;;5016234;28;20736;-50
2022/01/20 00:54:44;;;;;;;6.10;3.80;;;;;;;;;;5015870;28;20400;-51
2022/01/20 00:57:10;;;;;;;5.20;3.70;;;;;;;;;;5037460;23;20858;-65
2022/01/20 00:59:37;;;;;;;5.77;3.97;;;;;;;;;;5016009;28;20396;-65
2022/01/20 01:02:05;;;;;;;5.70;3.90;;;;;;;;;;5016254;28;20392;-65
2022/01/20 01:04:31;;;;;;;4.17;3.47;;;;;;;;;;5016094;28;20388;-67
2022/01/20 01:09:38;;;;;;;5.10;4.60;;;;;;;;;;5016443;28;20395;-65
2022/01/20 01:12:06;;;;;;;5.37;3.20;;;;;;;;;;5014698;28;20427;-65
2022/01/20 01:14:34;;;;;;;5.47;4.00;;;;;;;;;;5016029;28;20454;-65
2022/01/20 01:24:42;;;;;;;4.27;3.10;;;;;;;;;;5015928;28;20454;-64
2022/01/20 01:27:08;;;;;;;6.17;4.00;;;;;;;;;;5015877;28;20952;-65
2022/01/20 01:32:00;;;;;;;5.77;4.33;;;;;;;;;;5015535;28;20771;-65
2022/01/20 01:34:29;;;;;;;5.20;3.63;;;;;;;;;;5015318;28;20446;-65
2022/01/20 01:39:27;;;;;;;4.87;3.67;;;;;;;;;;5015335;28;20761;-65
2022/01/20 01:41:56;;;;;;;6.03;4.40;;;;;;;;;;5015311;28;20477;-65
2022/01/20 01:44:25;;;;;;;5.13;3.73;;;;;;;;;;5015403;28;20431;-64
2022/01/20 01:46:52;;;;;;;6.10;3.87;;;;;;;;;;5015014;28;20459;-64
2022/01/20 01:49:19;;;;;;;6.20;3.80;;;;;;;;;;5015325;28;20908;-64
2022/01/20 01:51:45;;;;;;;6.17;3.63;;;;;;;;;;5014977;28;20406;-65
2022/01/20 01:54:12;;;;;;;5.63;3.53;;;;;;;;;;5015294;28;20399;-65
2022/01/20 01:56:38;;;;;;;4.40;3.60;;;;;;;;;;5014774;28;20467;-65
2022/01/20 01:59:05;;;;;;;4.10;3.17;;;;;;;;;;5015082;28;20473;-65
2022/01/20 02:01:34;;;;;;;6.40;3.80;;;;;;;;;;5015187;28;20418;-64
2022/01/20 02:04:11;;;;;;;5.57;4.20;;;;;;;;;;5014748;28;20919;-65
2022/01/20 02:20:02;;;;;;;6.80;3.70;;;;;;;;;;5014640;28;20876;-65
2022/01/20 02:22:28;;;;;;;4.57;3.40;;;;;;;;;;5014684;28;20427;-64
2022/01/20 02:24:54;;;;;;;4.30;3.70;;;;;;;;;;5014673;28;20770;-64
2022/01/20 02:27:20;;;;;;;5.50;3.60;;;;;;;;;;5014222;28;21024;-65
2022/01/20 02:29:46;;;;;;;5.30;3.63;;;;;;;;;;5014352;28;20900;-65
2022/01/20 02:32:12;;;;;;;4.87;3.50;;;;;;;;;;5014681;28;20403;-65
2022/01/20 02:34:39;;;;;;;6.40;4.50;;;;;;;;;;5014531;28;20805;-64
2022/01/20 02:37:10;;;;;;;5.23;3.40;;;;;;;;;;5014112;28;20423;-65
2022/01/20 02:44:54;;;;;;;7.27;4.23;;;;;;;;;;4994402;28;20404;-64
2022/01/20 02:47:22;;;;;;;4.50;3.50;;;;;;;;;;4994647;28;20511;-64
2022/01/20 02:49:49;;;;;;;4.80;3.13;;;;;;;;;;4994572;28;20397;-64
2022/01/20 02:52:15;;;;;;;6.13;3.30;;;;;;;;;;4994457;28;20411;-65
2022/01/20 02:54:41;;;;;;;5.80;3.57;;;;;;;;;;4994312;28;20403;-64
2022/01/20 02:57:07;;;;;;;6.77;4.30;;;;;;;;;;4994175;28;20444;-64
2022/01/20 02:59:38;;;;;;;5.17;3.93;;;;;;;;;;4994320;28;20397;-64
2022/01/20 03:02:05;;;;;;;4.70;3.03;;;;;;;;;;4994560;28;20388;-63
2022/01/20 03:04:31;;;;;;;5.53;4.20;;;;;;;;;;4994457;28;20763;-64
2022/01/20 03:06:58;;;;;;;7.07;3.97;;;;;;;;;;4993980;28;20979;-64
2022/01/20 03:09:24;;;;;;;6.73;4.20;;;;;;;;;;4994116;28;20411;-65
2022/01/20 03:11:50;;;;;;;4.33;3.60;;;;;;;;;;4994073;28;20885;-65
2022/01/20 03:14:17;;;;;;;5.63;3.73;;;;;;;;;;4994539;28;20749;-65
2022/01/20 03:16:47;;;;;;;6.20;3.70;;;;;;;;;;4994434;28;20420;-64
2022/01/20 03:19:14;;;;;;;5.40;3.83;;;;;;;;;;4994215;28;20397;-64
2022/01/20 03:21:40;;;;;;;6.03;3.53;;;;;;;;;;4994218;28;20458;-65
2022/01/20 03:24:07;;;;;;;6.37;3.97;;;;;;;;;;4994384;28;20419;-65
2022/01/20 03:26:33;;;;;;;4.90;3.50;;;;;;;;;;4994224;28;20815;-65
2022/01/20 03:29:00;;;;;;;5.87;4.20;;;;;;;;;;4994171;28;20412;-64
2022/01/20 03:31:26;;;;;;;5.20;3.67;;;;;;;;;;4994025;28;20408;-65
2022/01/20 03:33:53;;;;;;;5.73;3.57;;;;;;;;;;4994510;28;20431;-64
2022/01/20 03:36:19;;;;;;;4.80;3.77;;;;;;;;;;4994098;28;20432;-64
2022/01/20 03:38:45;;;;;;;4.90;3.60;;;;;;;;;;4993722;28;20408;-64
2022/01/20 03:41:11;;;;;;;4.50;3.40;;;;;;;;;;4994082;28;20912;-64
2022/01/20 03:43:37;;;;;;;4.90;3.50;;;;;;;;;;4994194;28;20920;-64
2022/01/20 03:46:09;;;;;;;4.53;3.33;;;;;;;;;;4993638;28;20460;-64
2022/01/20 03:48:39;;;;;;;8.47;4.20;;;;;;;;;;4994090;28;20406;-64
2022/01/20 03:51:05;;;;;;;6.03;3.63;;;;;;;;;;4994258;28;20798;-64
2022/01/20 03:53:36;;;;;;;5.80;4.13;;;;;;;;;;4993917;28;20843;-64
2022/01/20 03:56:02;;;;;;;4.77;4.17;;;;;;;;;;4993616;28;20420;-64
2022/01/20 03:58:28;;;;;;;6.70;4.50;;;;;;;;;;4993621;28;20393;-64
2022/01/20 04:00:55;;;;;;;5.10;4.10;;;;;;;;;;4993700;28;20400;-64
2022/01/20 04:03:21;;;;;;;6.77;4.77;;;;;;;;;;4992318;28;20494;-64
2022/01/20 04:06:06;;;;;;;6.30;4.23;;;;;;;;;;4993471;28;20470;-64
2022/01/20 04:08:42;;;;;;;8.10;4.10;;;;;;;;;;4993568;28;20454;-64
2022/01/20 04:11:12;;;;;;;7.23;5.17;;;;;;;;;;4993726;28;20487;-64
2022/01/20 04:13:39;;;;;;;9.00;5.60;;;;;;;;;;5008314;28;20940;-63
2022/01/20 04:16:12;;;;;;;6.80;5.00;;;;;;;;;;4993503;28;20496;-63
2022/01/20 04:18:39;;;;;;;7.70;4.53;;;;;;;;;;4993638;28;20455;-63
2022/01/20 04:21:05;;;;;;;5.60;4.40;;;;;;;;;;4993778;28;20401;-63
2022/01/20 04:23:31;;;;;;;6.50;4.60;;;;;;;;;;4993408;28;20509;-63
2022/01/20 04:25:57;;;;;;;7.47;4.27;;;;;;;;;;4993314;28;20459;-64
2022/01/20 04:28:23;;;;;;;7.10;4.60;;;;;;;;;;4993294;28;20853;-64
2022/01/20 04:30:50;;;;;;;6.13;4.43;;;;;;;;;;4993461;28;20401;-64
2022/01/20 04:33:16;;;;;;;6.00;4.50;;;;;;;;;;4994101;28;20440;-64
2022/01/20 04:35:42;;;;;;;9.93;4.53;;;;;;;;;;4996917;28;20408;-64
2022/01/20 04:38:08;;;;;;;7.30;5.03;;;;;;;;;;4996814;28;20475;-64
2022/01/20 04:40:40;;;;;;;6.17;4.90;;;;;;;;;;4997069;28;20408;-64
2022/01/20 04:43:06;;;;;;;7.00;4.73;;;;;;;;;;4996686;28;20404;-64
2022/01/20 04:45:38;;;;;;;7.73;4.87;;;;;;;;;;4996624;28;20460;-63
2022/01/20 04:48:29;;;;;;;6.47;5.07;;;;;;;;;;4996907;28;20425;-64
2022/01/20 04:59:22;;;;;;;8.93;5.57;;;;;;;;;;4996559;28;20881;-64
2022/01/20 05:01:48;;;;;;;6.57;4.90;;;;;;;;;;4997141;28;20893;-64
2022/01/20 05:04:14;;;;;;;6.53;5.13;;;;;;;;;;4996499;28;20401;-64
2022/01/20 05:06:43;;;;;;;5.90;5.00;;;;;;;;;;4996429;28;20578;-64
2022/01/20 05:09:11;;;;;;;7.10;4.90;;;;;;;;;;4996490;28;20476;-64
2022/01/20 05:11:42;;;;;;;8.90;5.77;;;;;;;;;;4996237;28;20897;-64
2022/01/20 05:14:08;;;;;;;10.90;6.53;;;;;;;;;;4996558;28;20388;-64
2022/01/20 05:16:34;;;;;;;7.93;5.90;;;;;;;;;;4996183;28;20437;-64
2022/01/20 05:19:00;;;;;;;9.70;5.80;;;;;;;;;;4996151;28;20422;-64
2022/01/20 05:21:26;;;;;;;11.50;7.00;;;;;;;;;;4996119;28;20481;-64
2022/01/20 05:23:52;;;;;;;8.80;6.23;;;;;;;;;;4996013;28;20405;-64
2022/01/20 05:26:18;;;;;;;11.20;6.87;;;;;;;;;;4996141;28;20483;-64
2022/01/20 05:28:44;;;;;;;11.03;6.93;;;;;;;;;;4995995;28;20855;-64
2022/01/20 05:31:10;;;;;;;8.73;6.43;;;;;;;;;;4995974;28;20786;-64
2022/01/20 05:33:37;;;;;;;12.57;6.50;;;;;;;;;;4996058;28;20435;-64
2022/01/20 05:36:03;;;;;;;9.93;6.80;;;;;;;;;;4995856;28;20401;-64
2022/01/20 05:38:29;;;;;;;10.40;7.40;;;;;;;;;;4995843;28;20411;-64
2022/01/20 05:40:55;;;;;;;9.30;7.10;;;;;;;;;;4995774;28;20401;-64
2022/01/20 05:43:21;;;;;;;11.43;8.10;;;;;;;;;;4995981;28;20400;-64
2022/01/20 05:45:47;;;;;;;8.30;5.77;;;;;;;;;;4994463;28;20506;-64
2022/01/20 05:48:16;;;;;;;10.13;7.03;;;;;;;;;;4995615;28;20461;-64
2022/01/20 05:50:43;;;;;;;9.53;7.23;;;;;;;;;;4995628;28;20408;-64
2022/01/20 05:53:09;;;;;;;8.50;6.00;;;;;;;;;;4995924;28;20409;-64
2022/01/20 05:55:36;;;;;;;13.00;7.20;;;;;;;;;;4995450;28;20405;-64
2022/01/20 05:58:03;;;;;;;8.90;6.20;;;;;;;;;;4995321;28;20447;-64
2022/01/20 06:00:30;;;;;;;10.40;6.97;;;;;;;;;;4995393;28;20404;-64
2022/01/20 06:05:41;;;;;;;10.73;6.90;;;;;;;;;;4995662;28;20447;-64
2022/01/20 06:08:07;;;;;;;8.77;6.23;;;;;;;;;;4995131;28;20424;-64
2022/01/20 06:10:34;;;;;;;10.50;8.20;;;;;;;;;;4995428;28;20821;-64
2022/01/20 06:13:01;;;;;;;11.73;6.90;;;;;;;;;;4995423;28;20949;-64
2022/01/20 06:15:27;;;;;;;11.10;7.33;;;;;;;;;;4995383;28;20409;-64
2022/01/20 06:17:53;;;;;;;12.17;8.60;;;;;;;;;;4994987;28;20471;-64
2022/01/20 06:20:19;;;;;;;11.30;7.10;;;;;;;;;;4995209;28;20405;-64
2022/01/20 06:22:45;;;;;;;10.80;7.60;;;;;;;;;;4994871;28;20411;-65
2022/01/20 06:25:11;;;;;;;8.80;5.80;;;;;;;;;;4995106;28;20817;-66
2022/01/20 06:27:37;;;;;;;11.40;7.03;;;;;;;;;;4995165;28;20441;-65
2022/01/20 06:30:05;;;;;;;9.37;6.53;;;;;;;;;;4995053;28;20488;-65
2022/01/20 06:32:31;;;;;;;9.57;6.27;;;;;;;;;;4995081;28;20917;-65
2022/01/20 06:34:57;;;;;;;8.30;5.07;;;;;;;;;;4994848;28;20401;-65
2022/01/20 06:37:23;;;;;;;9.10;5.93;;;;;;;;;;4994580;28;20420;-65
2022/01/20 06:39:49;;;;;;;8.17;5.90;;;;;;;;;;4995247;28;20908;-65
2022/01/20 06:42:15;;;;;;;7.03;5.43;;;;;;;;;;4994605;28;20772;-65
2022/01/20 06:44:42;;;;;;;12.00;6.20;;;;;;;;;;4994541;28;20412;-64
2022/01/20 06:47:08;;;;;;;7.63;5.40;;;;;;;;;;4994681;28;20486;-65
2022/01/20 06:49:35;;;;;;;7.50;4.90;;;;;;;;;;4994655;28;20406;-65
2022/01/20 06:52:01;;;;;;;8.07;6.37;;;;;;;;;;4994728;28;20439;-65
2022/01/20 06:54:27;;;;;;;6.83;5.93;;;;;;;;;;4994298;28;20894;-65
2022/01/20 06:56:53;;;;;;;7.10;4.90;;;;;;;;;;5016321;23;20494;-78
2022/01/20 06:59:19;;;;;;;8.00;5.70;;;;;;;;;;5038941;28;20415;-78
2022/01/20 07:01:46;;;;;;;8.73;6.03;;;;;;;;;;5038428;28;20387;-78
2022/01/20 07:04:13;;;;;;;9.00;5.97;;;;;;;;;;5038482;28;20387;-78
2022/01/20 07:06:39;;;;;;;13.40;5.13;;;;;;;;;;5037890;28;20450;-78
2022/01/20 07:09:08;;;;;;;9.20;5.60;;;;;;;;;;5037472;28;20484;-78
2022/01/20 07:11:34;;;;;;;11.73;6.27;;;;;;;;;;5037297;28;20422;-78
2022/01/20 07:14:00;;;;;;;8.37;5.30;;;;;;;;;;5037916;28;20979;-78
2022/01/20 07:16:26;;;;;;;8.30;5.10;;;;;;;;;;5036173;28;20435;-78
2022/01/20 07:18:52;;;;;;;7.63;5.80;;;;;;;;;;5037633;28;20413;-78
2022/01/20 07:21:24;;;;;;;9.47;4.67;;;;;;;;;;5038071;28;20414;-78
2022/01/20 07:23:51;;;;;;;8.50;5.53;;;;;;;;;;5036424;28;20429;-78
2022/01/20 07:26:17;;;;;;;9.57;6.00;;;;;;;;;;5037912;28;20526;-78
2022/01/20 07:28:43;;;;;;;6.60;4.73;;;;;;;;;;5037583;28;20442;-78
2022/01/20 07:31:09;;;;;;;8.60;5.13;;;;;;;;;;5034900;28;20433;-78
2022/01/20 07:33:35;;;;;;;7.20;5.07;;;;;;;;;;5037191;28;20452;-78
2022/01/20 07:36:03;;;;;;;8.10;4.80;;;;;;;;;;5038170;28;20491;-78
2022/01/20 07:38:30;;;;;;;6.93;5.10;;;;;;;;;;5037890;28;20451;-78
2022/01/20 07:40:56;;;;;;;5.90;4.53;;;;;;;;;;5038212;28;20426;-78
2022/01/20 07:43:22;;;;;;;6.23;4.60;;;;;;;;;;5036022;28;20428;-78
2022/01/20 07:45:48;;;;;;;6.03;4.70;;;;;;;;;;5036539;28;20497;-78
2022/01/20 07:48:14;;;;;;;5.47;4.37;;;;;;;;;;5034803;28;20927;-78
2022/01/20 07:50:40;;;;;;;7.90;4.80;;;;;;;;;;5035980;28;20438;-78
2022/01/20 07:53:06;;;;;;;8.00;4.80;;;;;;;;;;5034772;28;20861;-78
2022/01/20 07:55:32;;;;;;;5.70;3.90;;;;;;;;;;5033955;28;20953;-77
2022/01/20 07:57:59;;;;;;;5.93;4.30;;;;;;;;;;5033694;28;20477;-77
2022/01/20 08:00:25;;;;;;;5.90;3.70;;;;;;;;;;5028008;28;20537;-77
2022/01/20 08:02:51;;;;;;;5.23;4.37;;;;;;;;;;5028412;28;20442;-77
2022/01/20 08:05:17;;;;;;;5.60;4.67;;;;;;;;;;5032105;28;20434;-77
2022/01/20 08:07:43;;;;;;;6.83;5.10;;;;;;;;;;5029674;28;20442;-77
2022/01/20 08:10:11;;;;;;;7.00;5.15;;;;;;;;;;5033893;28;20433;-77
2022/01/20 08:12:38;;;;;;;5.83;3.73;;;;;;;;;;5039332;28;20499;-78
2022/01/20 08:15:05;;;;;;;5.83;4.17;;;;;;;;;;5040359;28;20425;-78
2022/01/20 08:17:31;;;;;;;4.73;3.50;;;;;;;;;;5042511;28;20430;-78
2022/01/20 08:19:58;;;;;;;4.27;3.43;;;;;;;;;;5042299;28;20950;-78
2022/01/20 08:22:24;;;;;;;7.03;3.87;;;;;;;;;;5037262;28;20430;-78
2022/01/20 08:24:52;;;;;;;5.20;3.90;;;;;;;;;;5034647;28;20427;-78
2022/01/20 08:27:21;;;;;;;4.80;3.67;;;;;;;;;;5039165;28;20477;-79
2022/01/20 08:29:48;;;;;;;5.33;3.93;;;;;;;;;;5040042;28;20446;-78
2022/01/20 08:32:14;;;;;;;6.10;3.67;;;;;;;;;;5040448;28;20985;-78
2022/01/20 08:34:40;;;;;;;4.10;3.70;;;;;;;;;;5037986;28;20493;-78
2022/01/20 08:37:06;;;;;;;5.93;3.67;;;;;;;;;;5036831;28;20428;-78
2022/01/20 08:42:02;;;;;;;5.70;3.47;;;;;;;;;;5040724;28;20442;-77
2022/01/20 08:44:31;;;;;;;4.90;4.00;;;;;;;;;;5043518;28;20414;-79
2022/01/20 08:46:58;;;;;;;6.57;4.57;;;;;;;;;;5041811;28;20458;-79
2022/01/20 08:49:25;;;;;;;4.50;3.60;;;;;;;;;;5042172;28;20445;-77
2022/01/20 08:51:51;;;;;;;5.00;3.97;;;;;;;;;;5036646;28;20411;-78
2022/01/20 08:54:18;;;;;;;5.13;3.90;;;;;;;;;;5042333;28;20501;-78
2022/01/20 08:56:44;;;;;;;5.72;4.15;;;;;;;;;;4999261;28;1150886;-79
2022/01/20 08:59:12;;;;;;;4.25;3.85;;;;;;;;;;5033456;28;20425;-77
2022/01/20 09:01:40;;;;;;;5.50;4.20;;;;;;;;;;5037553;28;20258;-77
2022/01/20 09:04:06;;;;;;;5.17;3.60;;;;;;;;;;5038397;28;20422;-76
2022/01/20 09:06:32;;;;;;;6.70;4.13;;;;;;;;;;5034870;28;20968;-76
2022/01/20 09:08:58;;;;;;;5.87;3.77;;;;;;;;;;5037034;28;20414;-76
2022/01/20 09:11:30;;;;;;;5.00;3.60;;;;;;;;;;5035212;28;20762;-77
2022/01/20 09:16:43;;;;;;;4.50;3.38;;;;;;;;;;5034922;28;20507;-78
2022/01/20 09:19:09;;;;;;;4.90;3.90;;;;;;;;;;5031773;28;20431;-78
2022/01/20 09:21:38;;;;;;;4.93;3.70;;;;;;;;;;5037154;28;20636;-77
2022/01/20 09:24:05;;;;;;;5.67;4.20;;;;;;;;;;5035412;28;20419;-77
2022/01/20 09:26:31;;;;;;;5.03;3.90;;;;;;;;;;5034167;28;20447;-77
2022/01/20 09:28:57;;;;;;;5.30;4.30;;;;;;;;;;5039900;28;20443;-77
2022/01/20 09:31:25;;;;;;;5.63;4.17;;;;;;;;;;5039420;28;20812;-77
2022/01/20 09:33:51;;;;;;;6.20;4.20;;;;;;;;;;5036285;28;20883;-78
2022/01/20 09:36:19;;;;;;;6.10;4.70;;;;;;;;;;5034186;28;20430;-77
2022/01/20 09:38:45;;;;;;;5.03;4.40;;;;;;;;;;5033719;28;20505;-78
2022/01/20 09:41:11;;;;;;;5.60;3.80;;;;;;;;;;5034032;28;20795;-77
2022/01/20 09:43:38;;;;;;;6.17;4.60;;;;;;;;;;5056082;22;20582;-67
2022/01/20 09:46:04;;;;;;;4.60;4.17;;;;;;;;;;5030349;28;20459;-67
2022/01/20 09:48:32;;;;;;;5.60;4.53;;;;;;;;;;5030773;28;20842;-67
2022/01/20 09:51:00;;;;;;;4.43;3.70;;;;;;;;;;5027466;28;20442;-68
2022/01/20 09:53:26;;;;;;;5.50;4.80;;;;;;;;;;5027396;28;20588;-68
2022/01/20 09:55:52;;;;;;;5.00;4.20;;;;;;;;;;5031952;28;20431;-68
2022/01/20 09:58:18;;;;;;;4.00;3.40;;;;;;;;;;5030026;28;20450;-69
2022/01/20 10:00:46;;;;;;;5.80;4.53;;;;;;;;;;5033208;28;20419;-70
2022/01/20 10:03:13;;;;;;;4.87;4.03;;;;;;;;;;5030828;28;20454;-69
2022/01/20 10:05:40;;;;;;;5.10;4.07;;;;;;;;;;5031142;28;20541;-69
2022/01/20 10:08:08;;;;;;;3.90;3.50;;;;;;;;;;5031221;28;20446;-68
2022/01/20 10:10:43;;;;;;;5.27;4.63;;;;;;;;;;5030055;28;20415;-68
2022/01/20 10:13:10;;;;;;;5.90;4.47;;;;;;;;;;5028700;28;20412;-69
2022/01/20 10:15:37;;;;;;;4.13;3.73;;;;;;;;;;5032186;28;20418;-69
2022/01/20 10:18:07;;;;;;;3.80;3.40;;;;;;;;;;5031435;28;20897;-69
2022/01/20 10:20:33;;;;;;;4.70;3.73;;;;;;;;;;5035016;28;20414;-69
2022/01/20 10:22:59;;;;;;;3.87;3.47;;;;;;;;;;5032090;28;20443;-69
2022/01/20 10:25:25;;;;;;;5.47;4.07;;;;;;;;;;5028002;28;20437;-70
2022/01/20 10:27:53;;;;;;;4.33;3.83;;;;;;;;;;5027713;28;20528;-67
2022/01/20 10:30:20;;;;;;;4.70;3.50;;;;;;;;;;5025859;28;20509;-69
2022/01/20 10:32:47;;;;;;;6.80;3.70;;;;;;;;;;5031813;28;20923;-68
2022/01/20 10:35:14;;;;;;;4.60;3.67;;;;;;;;;;5027496;28;20416;-71
2022/01/20 10:37:41;;;;;;;6.43;4.30;;;;;;;;;;5024589;28;20908;-70
2022/01/20 10:40:14;;;;;;;4.47;3.83;;;;;;;;;;5032700;28;20491;-69
2022/01/20 10:42:42;;;;;;;5.73;4.20;;;;;;;;;;5030682;28;20450;-68
2022/01/20 10:45:09;;;;;;;6.13;4.50;;;;;;;;;;5031749;28;20438;-70
2022/01/20 10:47:36;;;;;;;5.30;4.23;;;;;;;;;;5028213;28;20529;-69
2022/01/20 10:50:17;;;;;;;5.10;4.27;;;;;;;;;;5032789;28;20434;-60
2022/01/20 10:52:44;;;;;;;5.37;4.10;;;;;;;;;;5031620;28;20426;-66
2022/01/20 10:55:25;;;;;;;6.87;4.27;;;;;;;;;;5028983;28;20427;-69
2022/01/20 10:57:55;;;;;;;5.75;4.00;;;;;;;;;;5025125;28;20530;-66
2022/01/20 11:00:22;;;;;;;7.00;4.20;;;;;;;;;;5027847;28;20246;-59
2022/01/20 11:02:58;;;;;;;4.03;3.63;;;;;;;;;;5029106;28;20430;-59
2022/01/20 11:05:25;;;;;;;5.10;4.07;;;;;;;;;;5030782;28;20501;-58
2022/01/20 11:07:54;;;;;;;8.40;4.53;;;;;;;;;;5031078;28;20434;-54
2022/01/20 11:10:20;;;;;;;6.97;5.63;;;;;;;;;;5030409;28;20446;-60
2022/01/20 11:12:46;;;;;;;4.50;3.90;;;;;;;;;;5031544;28;20417;-56
2022/01/20 11:15:17;;;;;;;5.00;3.77;;;;;;;;;;5028430;28;20911;-60
2022/01/20 11:17:43;;;;;;;5.43;3.20;;;;;;;;;;5028357;28;20461;-57
2022/01/20 11:20:09;;;;;;;5.37;3.57;;;;;;;;;;5031762;28;20419;-55
2022/01/20 11:22:36;;;;;;;4.67;4.10;;;;;;;;;;5027972;28;20423;-60
2022/01/20 11:25:09;;;;;;;4.73;3.47;;;;;;;;;;5030185;28;20429;-58
2022/01/20 11:27:36;;;;;;;3.70;3.40;;;;;;;;;;5031609;28;20614;-57
2022/01/20 11:30:12;;;;;;;5.90;3.73;;;;;;;;;;5031815;28;20441;-54
2022/01/20 11:32:39;;;;;;;4.20;3.47;;;;;;;;;;5021183;28;20891;-55
2022/01/20 11:35:07;;;;;;;3.97;3.07;;;;;;;;;;5031044;28;20508;-55
2022/01/20 11:37:35;;;;;;;4.27;3.87;;;;;;;;;;5030516;28;20977;-59
2022/01/20 11:40:21;;;;;;;4.70;2.93;;;;;;;;;;5031272;28;20442;-57
2022/01/20 11:42:57;;;;;;;5.53;3.60;;;;;;;;;;5028242;28;20451;-55
2022/01/20 11:45:43;;;;;;;3.23;2.73;;;;;;;;;;5029490;28;20437;-58
2022/01/20 11:48:16;;;;;;;4.10;2.73;;;;;;;;;;5030247;28;20442;-57
2022/01/20 11:50:43;;;;;;;3.67;3.00;;;;;;;;;;5027928;28;20422;-57
2022/01/20 11:53:13;;;;;;;5.00;3.53;;;;;;;;;;5030057;28;20450;-59
2022/01/20 11:55:47;;;;;;;4.30;3.00;;;;;;;;;;5031044;28;20439;-56
2022/01/20 11:58:15;;;;;;;5.43;3.20;;;;;;;;;;5031052;28;20799;-57
2022/01/20 12:00:41;;;;;;;4.47;2.80;;;;;;;;;;5028806;28;20478;-55
2022/01/20 12:03:14;;;;;;;5.77;2.67;;;;;;;;;;5024294;28;20415;-55
2022/01/20 12:05:42;;;;;;;6.80;2.60;;;;;;;;;;5022088;28;20443;-57
2022/01/20 12:08:14;;;;;;;7.17;2.70;;;;;;;;;;5029681;28;20518;-58
2022/01/20 12:10:41;;;;;;;5.43;3.03;;;;;;;;;;5030348;28;20406;-58
2022/01/20 12:13:08;;;;;;;5.00;3.00;;;;;;;;;;5030065;28;20506;-58
2022/01/20 12:15:34;;;;;;;3.00;2.37;;;;;;;;;;5029583;28;20410;-59
2022/01/20 12:18:00;;;;;;;5.30;2.77;;;;;;;;;;5027863;28;20947;-58
2022/01/20 12:20:26;;;;;;;5.70;2.83;;;;;;;;;;5027109;28;20997;-53
2022/01/20 12:22:53;;;;;;;8.90;3.20;;;;;;;;;;5020948;28;20776;-56
2022/01/20 12:25:22;;;;;;;4.70;2.60;;;;;;;;;;5026940;28;20415;-59
2022/01/20 12:27:49;;;;;;;4.27;2.67;;;;;;;;;;5030081;28;20807;-57
2022/01/20 12:30:24;;;;;;;4.10;3.00;;;;;;;;;;5030531;28;20418;-53
2022/01/20 12:33:00;;;;;;;4.27;2.70;;;;;;;;;;5021078;28;20415;-53
2022/01/20 12:35:34;;;;;;;3.70;2.70;;;;;;;;;;5031226;28;20416;-55
2022/01/20 12:38:00;;;;;;;5.27;2.60;;;;;;;;;;5025399;28;20438;-53
2022/01/20 12:40:26;;;;;;;4.00;1.87;;;;;;;;;;5029452;28;20843;-55
2022/01/20 12:42:52;;;;;;;3.60;2.50;;;;;;;;;;5027218;28;20407;-56
2022/01/20 12:48:13;;;;;;;2.93;1.90;;;;;;;;;;5024654;28;20533;-57
2022/01/20 12:50:39;;;;;;;3.90;2.40;;;;;;;;;;5028051;28;20446;-59
2022/01/20 12:53:05;;;;;;;5.60;2.70;;;;;;;;;;5027290;28;20426;-56
2022/01/20 12:55:31;;;;;;;2.63;2.33;;;;;;;;;;5026775;28;20458;-58
2022/01/20 12:57:58;;;;;;;5.30;2.40;;;;;;;;;;5032823;28;20443;-53
2022/01/20 13:00:24;;;;;;;3.17;2.10;;;;;;;;;;5027537;28;20411;-54
2022/01/20 13:02:51;;;;;;;5.13;2.30;;;;;;;;;;5033990;28;20769;-55
2022/01/20 13:05:19;;;;;;;4.40;2.53;;;;;;;;;;5031483;28;20422;-56
2022/01/20 13:07:51;;;;;;;3.10;1.90;;;;;;;;;;5028854;28;20477;-59
2022/01/20 13:10:29;;;;;;;3.60;2.30;;;;;;;;;;5031339;28;20407;-57
2022/01/20 13:12:55;;;;;;;4.57;2.55;;;;;;;;;;5033009;28;20854;-55
2022/01/20 13:15:26;;;;;;;2.90;2.47;;;;;;;;;;5031683;28;20281;-58
2022/01/20 13:18:02;;;;;;;4.85;2.50;;;;;;;;;;5026767;28;20433;-56
2022/01/20 13:20:30;;;;;;;4.07;2.67;;;;;;;;;;5033211;28;20191;-58
2022/01/20 13:22:58;;;;;;;4.80;2.40;;;;;;;;;;5029766;28;20430;-58
2022/01/20 13:25:25;;;;;;;2.80;2.50;;;;;;;;;;5033555;28;20433;-59
2022/01/20 13:28:01;;;;;;;3.87;2.47;;;;;;;;;;5029285;28;20442;-57
2022/01/20 13:30:29;;;;;;;3.13;2.13;;;;;;;;;;5032037;28;20445;-58
2022/01/20 13:32:56;;;;;;;3.80;2.40;;;;;;;;;;5033085;28;20426;-57
2022/01/20 13:35:22;;;;;;;6.20;2.93;;;;;;;;;;5030097;28;20913;-59
2022/01/20 13:37:59;;;;;;;2.97;2.43;;;;;;;;;;5030868;28;20442;-57
2022/01/20 13:40:25;;;;;;;3.40;2.67;;;;;;;;;;5031256;28;20430;-60
2022/01/20 13:45:40;;;;;;;4.10;2.67;;;;;;;;;;5025602;28;20481;-55
2022/01/20 13:48:06;;;;;;;6.23;3.30;;;;;;;;;;5029735;28;20803;-55
2022/01/20 13:50:37;;;;;;;5.20;3.10;;;;;;;;;;5031357;28;20414;-58
2022/01/20 13:53:19;;;;;;;3.70;2.13;;;;;;;;;;5029673;28;20415;-58
2022/01/20 13:55:47;;;;;;;6.03;3.20;;;;;;;;;;5042375;28;20427;-53
2022/01/20 13:58:23;;;;;;;3.53;2.77;;;;;;;;;;5031768;28;20470;-56
2022/01/20 14:00:49;;;;;;;7.47;3.83;;;;;;;;;;5033070;28;20418;-57
2022/01/20 14:03:15;;;;;;;4.10;2.70;;;;;;;;;;5033054;28;20435;-54
2022/01/20 14:05:41;;;;;;;2.90;2.57;;;;;;;;;;5022543;28;20792;-57
2022/01/20 14:08:08;;;;;;;4.80;2.80;;;;;;;;;;5032372;28;20529;-60
2022/01/20 14:10:34;;;;;;;3.13;2.30;;;;;;;;;;5032738;28;20415;-57
2022/01/20 14:13:01;;;;;;;3.10;2.30;;;;;;;;;;5031724;28;20422;-54
2022/01/20 14:15:27;;;;;;;4.33;2.50;;;;;;;;;;5033037;28;20423;-54
2022/01/20 14:17:58;;;;;;;2.97;2.37;;;;;;;;;;5032482;28;20446;-55
2022/01/20 14:20:27;;;;;;;4.63;2.67;;;;;;;;;;5033176;28;20433;-58
2022/01/20 14:22:54;;;;;;;3.90;2.43;;;;;;;;;;5033170;28;20421;-59
2022/01/20 14:25:22;;;;;;;3.60;3.03;;;;;;;;;;5031770;28;20423;-53
2022/01/20 14:27:49;;;;;;;5.97;3.40;;;;;;;;;;5032997;28;20493;-57
2022/01/20 14:30:15;;;;;;;7.07;3.43;;;;;;;;;;5032921;28;20451;-53
2022/01/20 14:32:41;;;;;;;3.77;2.97;;;;;;;;;;5032671;28;20779;-55
2022/01/20 14:35:08;;;;;;;3.47;2.60;;;;;;;;;;5028669;28;20431;-58
2022/01/20 14:37:37;;;;;;;4.80;3.07;;;;;;;;;;5032334;28;20961;-55
2022/01/20 14:40:29;;;;;;;5.37;3.60;;;;;;;;;;5031993;28;20434;-57
2022/01/20 14:42:55;;;;;;;5.13;3.70;;;;;;;;;;5027438;28;20494;-55
2022/01/20 14:45:22;;;;;;;6.43;2.90;;;;;;;;;;5032686;28;20429;-57
2022/01/20 14:47:52;;;;;;;5.20;3.57;;;;;;;;;;5026315;28;20465;-57
2022/01/20 14:50:18;;;;;;;4.70;2.97;;;;;;;;;;5024524;28;20520;-53
2022/01/20 14:52:44;;;;;;;7.70;3.60;;;;;;;;;;5030945;28;20926;-53
2022/01/20 14:55:10;;;;;;;4.17;3.20;;;;;;;;;;5032169;28;20875;-56
2022/01/20 14:57:36;;;;;;;4.33;3.10;;;;;;;;;;5032258;28;20450;-57
2022/01/20 15:00:05;;;;;;;4.80;3.83;;;;;;;;;;5031642;28;20769;-59
2022/01/20 15:02:31;;;;;;;4.10;3.20;;;;;;;;;;5031816;28;20884;-56
2022/01/20 15:04:57;;;;;;;8.53;3.43;;;;;;;;;;5022806;28;20430;-55
2022/01/20 15:07:23;;;;;;;8.30;4.17;;;;;;;;;;5031780;28;20917;-57
2022/01/20 15:09:49;;;;;;;4.37;3.93;;;;;;;;;;5033031;28;20419;-56
2022/01/20 15:12:15;;;;;;;8.10;4.07;;;;;;;;;;5031008;28;20418;-55
2022/01/20 15:14:41;;;;;;;5.77;4.20;;;;;;;;;;5019031;28;20482;-56
2022/01/20 15:17:08;;;;;;;5.03;3.70;;;;;;;;;;5031632;28;20444;-59
2022/01/20 15:19:34;;;;;;;8.57;5.60;;;;;;;;;;5032010;28;20480;-53
2022/01/20 15:22:00;;;;;;;8.77;5.70;;;;;;;;;;5032143;28;20423;-58
2022/01/20 15:24:29;;;;;;;5.33;4.50;;;;;;;;;;5031267;28;20449;-58
2022/01/20 15:26:55;;;;;;;6.77;4.57;;;;;;;;;;5031628;28;20523;-59
2022/01/20 15:29:21;;;;;;;6.90;4.90;;;;;;;;;;5031037;28;20419;-53
2022/01/20 15:31:47;;;;;;;5.67;4.30;;;;;;;;;;5021953;28;20442;-58
2022/01/20 15:34:14;;;;;;;3.10;2.67;;;;;;;;;;5032613;28;20426;-53
2022/01/20 15:36:40;;;;;;;6.70;2.60;;;;;;;;;;5026991;28;20438;-53
2022/01/20 15:39:07;;;;;;;14.20;2.43;;;;;;;;;;5030932;28;20510;-55
2022/01/20 15:41:34;;;;;;;5.57;2.73;;;;;;;;;;5032062;28;20513;-56
2022/01/20 15:44:00;;;;;;;2.93;1.77;;;;;;;;;;5028306;28;20455;-59
2022/01/20 15:46:26;;;;;;;4.20;2.00;;;;;;;;;;5019768;28;20523;-55
2022/01/20 15:48:52;;;;;;;2.93;1.97;;;;;;;;;;5035665;28;20457;-53
2022/01/20 15:51:18;;;;;;;6.27;2.70;;;;;;;;;;5023275;28;20411;-53
2022/01/20 15:53:44;;;;;;;6.30;2.60;;;;;;;;;;5032038;28;20443;-54
2022/01/20 15:56:10;;;;;;;5.03;3.07;;;;;;;;;;5032000;28;20426;-64
2022/01/20 15:58:36;;;;;;;5.20;2.30;;;;;;;;;;5031529;28;20573;-55
2022/01/20 16:01:02;;;;;;;4.70;2.70;;;;;;;;;;5031312;28;20469;-59
2022/01/20 16:03:28;;;;;;;5.90;3.10;;;;;;;;;;5029741;28;20423;-58